Time;durP1;ratioP1;P1;durP2;ratioP2;P2;SDS_P1;SDS_P2;PMS_P1;PMS_P2;Temp;Humidity;BMP_temperature;BMP_pressure;BME280_temperature;BME280_humidity;BME280_pressure;Samples;Min_cycle;Max_cycle;Signal;HPM_P1;HPM_P2
2022/06/20 00:01:48;;;;;;;11.43;9.35;;;;;;;29.21;61.68;100666.13;5051244;28;66726;-33
2022/06/20 00:04:20;;;;;;;11.35;9.50;;;;;;;29.29;63.58;100668.59;5059031;28;70459;-35
2022/06/20 00:06:51;;;;;;;;;;;;;;;29.10;65.90;100674.91;5063111;28;66008;-35
2022/06/20 00:09:22;;;;;;;11.85;10.70;;;;;;;29.42;64.65;100677.66;5043455;28;69157;-35
2022/06/20 00:11:53;;;;;;;13.10;11.70;;;;;;;29.44;64.75;100668.31;5043367;28;65687;-35
2022/06/20 00:14:24;;;;;;;11.55;10.35;;;;;;;29.56;65.21;100677.41;5054858;28;71316;-35
2022/06/20 00:16:55;;;;;;;12.48;10.63;;;;;;;29.60;66.26;100675.91;5063070;28;66634;-35
2022/06/20 00:19:27;;;;;;;15.20;13.67;;;;;;;29.61;69.42;100676.75;5043472;28;69665;-33
2022/06/20 00:21:58;;;;;;;19.33;15.05;;;;;;;29.61;70.31;100677.59;5061840;28;65517;-34
2022/06/20 00:24:30;;;;;;;25.42;16.30;;;;;;;29.60;71.06;100665.09;5049040;28;70357;-33
2022/06/20 00:27:01;;;;;;;25.15;18.25;;;;;;;29.69;71.33;100673.00;5051800;28;65082;-33
2022/06/20 00:29:34;;;;;;;23.20;16.65;;;;;;;29.73;71.84;100687.75;5050585;28;70401;-33
2022/06/20 00:32:06;;;;;;;17.88;15.52;;;;;;;29.77;71.99;100678.97;5042823;28;66101;-33
2022/06/20 00:34:38;;;;;;;18.77;16.13;;;;;;;29.83;71.28;100675.38;5063013;27;71027;-33
2022/06/20 00:37:17;;;;;;;17.13;14.75;;;;;;;29.64;71.18;100624.97;5044451;28;67085;-33
2022/06/20 00:39:50;;;;;;;18.25;14.00;;;;;;;29.65;71.82;100628.53;5059943;28;70156;-33
2022/06/20 00:42:21;;;;;;;15.38;13.32;;;;;;;29.91;70.90;100682.41;5064915;28;65474;-34
2022/06/20 00:45:13;;;;;;;13.82;12.82;;;;;;;29.96;71.27;100679.06;5061455;28;68787;-33
2022/06/20 00:48:09;;;;;;;13.65;12.18;;;;;;;29.98;70.96;100674.28;5051893;28;66694;-33
2022/06/20 00:51:08;;;;;;;12.88;11.65;;;;;;;29.94;69.54;100659.50;5051580;28;70591;-34
2022/06/20 00:54:23;;;;;;;10.65;9.82;;;;;;;29.60;69.25;100627.25;5049529;28;65816;-35
2022/06/20 00:57:32;;;;;;;9.45;8.75;;;;;;;29.96;68.18;100660.13;5048875;28;69742;-34
2022/06/20 01:00:28;;;;;;;9.50;8.70;;;;;;;29.78;67.94;100618.47;5048557;28;65781;-33
2022/06/20 01:03:23;;;;;;;10.35;8.48;;;;;;;30.23;67.70;100668.91;5048536;28;70416;-35
2022/06/20 01:06:21;;;;;;;9.60;8.82;;;;;;;30.30;67.22;100674.25;5050157;28;65878;-35
2022/06/20 01:09:12;;;;;;;9.07;8.48;;;;;;;30.35;66.96;100682.53;5050784;28;69545;-35
2022/06/20 01:12:04;;;;;;;8.80;8.10;;;;;;;30.30;67.02;100668.84;5049771;28;66510;-35
2022/06/20 01:14:53;;;;;;;8.70;7.95;;;;;;;30.42;66.89;100680.59;5048258;28;70410;-34
2022/06/20 01:17:42;;;;;;;8.43;7.93;;;;;;;30.48;66.20;100685.13;5046829;28;65894;-34
2022/06/20 01:20:36;;;;;;;8.32;7.68;;;;;;;30.30;65.75;100647.19;5055695;28;70485;-34
2022/06/20 01:23:55;;;;;;;7.95;7.35;;;;;;;30.41;66.84;100684.34;5045609;28;66608;-35
2022/06/20 01:26:52;;;;;;;8.43;7.93;;;;;;;30.31;65.80;100638.84;5047304;28;70228;-35
2022/06/20 01:29:41;;;;;;;8.27;7.50;;;;;;;30.64;65.75;100681.00;5058948;28;64975;-35
2022/06/20 01:32:30;;;;;;;8.20;7.60;;;;;;;30.68;64.87;100685.75;5055636;28;69612;-34
2022/06/20 01:38:28;;;;;;;7.38;6.88;;;;;;;30.76;64.54;100684.66;5054048;28;70069;-35
2022/06/20 01:44:26;;;;;;;7.97;7.47;;;;;;;30.80;64.86;100679.63;5040282;28;69795;-35
2022/06/20 01:47:15;;;;;;;7.90;7.20;;;;;;;30.77;64.26;100669.22;5041606;28;66422;-35
2022/06/20 01:50:07;;;;;;;7.63;6.90;;;;;;;30.84;64.02;100667.28;5041047;28;69650;-34
2022/06/20 01:52:56;;;;;;;8.20;7.60;;;;;;;30.92;63.99;100677.81;5040850;28;66596;-35
2022/06/20 01:55:49;;;;;;;7.72;7.13;;;;;;;30.98;63.94;100674.22;5039987;28;70016;-35
2022/06/20 01:58:44;;;;;;;7.55;7.10;;;;;;;30.42;63.91;100572.31;5041053;28;65803;-35
2022/06/20 02:01:37;;;;;;;7.80;7.20;;;;;;;30.79;63.03;100623.81;5039995;28;70140;-34
2022/06/20 02:04:32;;;;;;;8.45;7.60;;;;;;;31.07;63.23;100662.03;5041586;28;66594;-36
2022/06/20 02:07:21;;;;;;;8.02;7.50;;;;;;;31.08;63.26;100660.97;5039934;28;69992;-35
2022/06/20 02:10:16;;;;;;;8.35;7.05;;;;;;;31.14;63.00;100662.75;5042237;28;66439;-35
2022/06/20 02:13:05;;;;;;;8.55;7.95;;;;;;;31.13;62.56;100641.31;5042628;28;70514;-36
2022/06/20 02:16:00;;;;;;;7.13;6.63;;;;;;;31.03;62.69;100614.75;5041613;28;66298;-35
2022/06/20 02:18:52;;;;;;;7.22;6.63;;;;;;;30.92;62.92;100600.13;5041315;28;69441;-35
2022/06/20 02:21:45;;;;;;;8.07;7.47;;;;;;;31.22;62.93;100650.78;5039130;28;66166;-37
2022/06/20 02:24:43;;;;;;;8.18;7.57;;;;;;;30.92;62.79;100592.00;5038287;28;70327;-34
2022/06/20 02:27:38;;;;;;;8.18;6.10;;;;;;;31.31;62.68;100651.31;5043926;28;66380;-35
2022/06/20 02:30:29;;;;;;;7.28;6.72;;;;;;;31.35;62.53;100649.81;5047108;28;70013;-35
2022/06/20 02:33:25;;;;;;;6.32;5.82;;;;;;;31.16;62.13;100602.94;5044525;28;66323;-35
2022/06/20 02:36:15;;;;;;;7.13;6.40;;;;;;;31.42;62.04;100639.72;5045677;28;70273;-36
2022/06/20 02:39:04;;;;;;;7.28;6.57;;;;;;;31.45;62.16;100639.25;5049387;28;66643;-34
2022/06/20 02:41:59;;;;;;;6.95;6.55;;;;;;;31.47;62.01;100630.91;5053341;28;69235;-36
2022/06/20 02:44:49;;;;;;;6.60;6.22;;;;;;;31.51;61.68;100641.06;5045612;28;66649;-34
2022/06/20 02:47:44;;;;;;;7.18;6.68;;;;;;;31.27;61.97;100587.78;5049503;28;70590;-36
2022/06/20 02:50:39;;;;;;;6.45;6.05;;;;;;;31.59;61.60;100638.03;5041152;28;66466;-35
2022/06/20 02:53:39;;;;;;;6.20;5.80;;;;;;;31.28;61.78;100589.44;5054457;28;70226;-36
2022/06/20 02:56:32;;;;;;;6.63;6.13;;;;;;;31.58;61.62;100617.38;5042599;28;65960;-35
2022/06/20 02:59:52;;;;;;;6.07;5.68;;;;;;;31.57;61.98;100632.00;5040510;28;70185;-35
2022/06/20 03:02:46;;;;;;;5.70;5.40;;;;;;;31.72;61.74;100630.75;5048441;28;66211;-36
2022/06/20 03:05:36;;;;;;;8.18;5.72;;;;;;;31.73;61.76;100622.38;5042564;28;70494;-35
2022/06/20 03:08:25;;;;;;;6.80;6.20;;;;;;;31.77;61.80;100617.31;5053273;28;66550;-35
2022/06/20 03:11:15;;;;;;;6.60;6.00;;;;;;;31.78;61.37;100610.81;5041942;28;70220;-36
2022/06/20 03:14:07;;;;;;;6.78;6.25;;;;;;;31.81;61.42;100613.06;5040941;28;66143;-36
2022/06/20 03:16:57;;;;;;;5.95;5.47;;;;;;;31.81;61.25;100602.22;5042018;28;70367;-34
2022/06/20 03:19:58;;;;;;;5.93;5.43;;;;;;;31.86;61.07;100605.06;5038886;28;65713;-35
2022/06/20 03:22:56;;;;;;;5.82;5.43;;;;;;;31.89;60.62;100584.78;5039936;28;70469;-36
2022/06/20 03:25:45;;;;;;;5.70;5.30;;;;;;;31.95;60.92;100581.97;5039968;28;66443;-35
2022/06/20 03:28:35;;;;;;;5.72;5.32;;;;;;;31.99;60.84;100590.50;5037004;28;69192;-35
2022/06/20 03:31:24;;;;;;;5.03;4.72;;;;;;;32.02;60.96;100582.69;5044752;28;65541;-36
2022/06/20 03:34:13;;;;;;;5.95;5.55;;;;;;;32.01;60.87;100572.06;5049282;28;70096;-35
2022/06/20 03:37:06;;;;;;;5.93;5.38;;;;;;;32.07;60.52;100581.16;5039890;28;65535;-36
2022/06/20 03:39:55;;;;;;;6.47;5.97;;;;;;;32.07;60.54;100575.72;5028173;28;69292;-36
2022/06/20 03:42:45;;;;;;;5.68;5.15;;;;;;;32.10;60.63;100583.41;5050568;28;66566;-35
2022/06/20 03:45:39;;;;;;;5.20;4.90;;;;;;;32.09;60.33;100570.91;5043859;28;70182;-36
2022/06/20 03:48:43;;;;;;;5.55;5.15;;;;;;;32.18;60.08;100583.03;5041365;28;66054;-36
2022/06/20 03:51:47;;;;;;;5.22;4.90;;;;;;;31.93;60.49;100532.56;5040659;28;70382;-35
2022/06/20 03:54:49;;;;;;;5.07;4.78;;;;;;;32.09;60.41;100565.47;5043767;28;66033;-35
2022/06/20 03:57:52;;;;;;;5.18;4.78;;;;;;;32.21;60.18;100577.16;5050872;28;69613;-35
2022/06/20 04:01:03;;;;;;;5.63;5.22;;;;;;;31.82;60.32;100517.09;5050133;28;65978;-34
2022/06/20 04:04:10;;;;;;;9.65;5.13;;;;;;;32.22;60.26;100567.94;5046155;28;69927;-34
2022/06/20 04:07:06;;;;;;;5.78;5.28;;;;;;;32.19;60.24;100557.56;5037865;28;66024;-35
2022/06/20 04:13:43;;;;;;;6.50;5.10;;;;;;;32.28;60.31;100567.00;5047487;28;66303;-36
2022/06/20 04:16:39;;;;;;;4.82;4.38;;;;;;;31.99;60.23;100503.69;5047257;28;69637;-36
2022/06/20 04:19:36;;;;;;;5.35;4.95;;;;;;;32.29;60.49;100538.81;5041575;28;65688;-34
2022/06/20 04:22:32;;;;;;;4.93;4.63;;;;;;;32.14;60.23;100511.31;5044237;28;70320;-35
2022/06/20 04:25:39;;;;;;;5.10;4.70;;;;;;;32.28;59.89;100545.28;5057355;28;66319;-35
2022/06/20 04:28:45;;;;;;;5.82;4.78;;;;;;;32.30;59.82;100545.88;5046657;28;70069;-36
2022/06/20 04:31:49;;;;;;;6.53;4.45;;;;;;;32.38;59.92;100545.50;5045920;28;65490;-36
2022/06/20 04:34:45;;;;;;;7.00;4.85;;;;;;;32.20;59.78;100499.50;5060970;28;70439;-36
2022/06/20 04:37:59;;;;;;;7.93;4.60;;;;;;;32.36;60.03;100534.06;5046936;28;66176;-35
2022/06/20 04:40:59;;;;;;;4.72;4.32;;;;;;;32.49;59.44;100541.97;5051214;28;70548;-35
2022/06/20 04:44:01;;;;;;;4.50;4.22;;;;;;;32.46;59.80;100537.03;5047384;28;66200;-35
2022/06/20 04:47:10;;;;;;;4.80;4.50;;;;;;;32.43;59.73;100533.91;5062847;28;69056;-35
2022/06/20 04:49:59;;;;;;;5.00;4.60;;;;;;;32.46;59.93;100531.59;5048496;28;66077;-35
2022/06/20 04:52:52;;;;;;;4.88;4.47;;;;;;;32.48;59.99;100531.34;5078713;27;70508;-35
2022/06/20 04:55:44;;;;;;;;;;;;;;;32.21;60.81;100536.47;5051346;28;66313;-35
2022/06/20 04:59:11;;;;;;;4.60;4.10;;;;;;;32.38;60.14;100531.13;5055476;28;70511;-35
2022/06/20 05:02:07;;;;;;;4.70;4.30;;;;;;;32.26;59.79;100476.84;5050524;28;66199;-35
2022/06/20 05:05:00;;;;;;;4.88;4.47;;;;;;;32.52;59.45;100507.28;5055680;28;69956;-35
2022/06/20 05:07:51;;;;;;;4.90;4.60;;;;;;;32.67;59.76;100521.97;5052054;28;65719;-35
2022/06/20 05:10:48;;;;;;;5.25;4.22;;;;;;;32.70;59.40;100517.94;5059061;28;69746;-35
2022/06/20 05:13:48;;;;;;;6.90;3.95;;;;;;;32.68;59.36;100515.50;5060749;28;66294;-34
2022/06/20 05:16:47;;;;;;;4.10;3.80;;;;;;;32.42;59.35;100470.66;5050870;28;70488;-35
2022/06/20 05:19:41;;;;;;;4.90;4.40;;;;;;;32.73;58.96;100514.75;5045412;28;67128;-35
2022/06/20 05:22:38;;;;;;;4.78;3.92;;;;;;;32.47;59.26;100450.97;5049300;28;70145;-36
2022/06/20 05:25:30;;;;;;;4.78;4.22;;;;;;;32.78;59.40;100489.59;5052941;28;66130;-36
2022/06/20 05:28:24;;;;;;;5.22;4.03;;;;;;;32.78;59.22;100490.41;5055642;28;70916;-35
2022/06/20 05:31:28;;;;;;;4.38;4.10;;;;;;;32.77;59.15;100477.91;5048864;27;66623;-36
2022/06/20 05:34:26;;;;;;;4.43;4.13;;;;;;;32.83;58.99;100476.91;5045936;28;70045;-36
2022/06/20 05:37:06;;;;;;;4.90;4.50;;;;;;;32.85;59.16;100480.22;5062859;28;66276;-35
2022/06/20 05:39:40;;;;;;;4.22;3.90;;;;;;;32.87;59.18;100472.63;5058172;28;70170;-34
2022/06/20 05:42:15;;;;;;;4.20;3.90;;;;;;;32.69;59.05;100438.38;5052100;28;66549;-36
2022/06/20 05:44:46;;;;;;;4.10;3.80;;;;;;;32.91;59.07;100460.22;5059319;28;69432;-35
2022/06/20 05:47:23;;;;;;;5.85;4.32;;;;;;;32.93;58.81;100449.09;5051283;28;66321;-35
2022/06/20 05:50:21;;;;;;;5.90;3.97;;;;;;;32.59;58.93;100396.63;5048076;28;70265;-35
2022/06/20 05:52:54;;;;;;;4.25;3.95;;;;;;;32.63;58.91;100389.66;5047687;28;65594;-36
2022/06/20 05:55:30;;;;;;;6.63;3.75;;;;;;;32.95;58.89;100419.81;5047484;28;69974;-36
2022/06/20 05:58:02;;;;;;;4.07;3.78;;;;;;;32.98;58.74;100410.34;5055140;28;66740;-35
2022/06/20 06:00:36;;;;;;;3.90;3.70;;;;;;;32.68;58.82;100362.56;5051141;28;69691;-35
2022/06/20 06:03:14;;;;;;;3.92;3.63;;;;;;;33.02;58.59;100411.53;5056604;28;65631;-35
2022/06/20 06:05:58;;;;;;;4.50;4.20;;;;;;;32.80;58.49;100360.59;5058979;28;69990;-35
2022/06/20 06:08:42;;;;;;;3.65;3.35;;;;;;;32.67;58.42;100336.47;5063094;28;66029;-35
2022/06/20 06:11:44;;;;;;;3.63;3.40;;;;;;;32.96;58.91;100390.72;5046497;28;70093;-35
2022/06/20 06:14:32;;;;;;;4.07;3.70;;;;;;;32.76;58.57;100340.44;5044609;28;66051;-36
2022/06/20 06:17:17;;;;;;;4.30;3.90;;;;;;;32.86;58.83;100345.22;5058743;28;69153;-36
2022/06/20 06:20:16;;;;;;;4.00;3.65;;;;;;;33.04;58.93;100357.75;5046483;28;65482;-36
2022/06/20 06:22:51;;;;;;;3.90;3.60;;;;;;;33.13;58.83;100372.59;5045433;28;69531;-35
2022/06/20 06:25:23;;;;;;;3.72;3.42;;;;;;;33.14;58.81;100368.78;5045702;28;66575;-35
2022/06/20 06:27:57;;;;;;;3.90;3.60;;;;;;;33.17;58.64;100367.47;5051379;28;69729;-34
2022/06/20 06:30:43;;;;;;;3.72;3.42;;;;;;;33.15;58.44;100360.41;5050408;28;66262;-35
2022/06/20 06:33:29;;;;;;;3.53;3.33;;;;;;;33.19;58.54;100355.28;5054388;28;70181;-35
2022/06/20 06:36:26;;;;;;;7.32;4.10;;;;;;;33.06;58.79;100344.75;5066674;28;65342;-36
2022/06/20 06:39:28;;;;;;;3.75;3.45;;;;;;;33.09;58.54;100339.63;5062101;28;70558;-34
2022/06/20 06:42:03;;;;;;;3.60;3.35;;;;;;;32.91;58.38;100294.50;5054391;28;65575;-35
2022/06/20 06:44:40;;;;;;;4.22;3.83;;;;;;;33.21;58.37;100331.41;5052313;28;70291;-35
2022/06/20 06:47:26;;;;;;;3.67;3.38;;;;;;;33.16;58.19;100323.16;5055520;28;66722;-36
2022/06/20 06:50:02;;;;;;;3.70;3.50;;;;;;;33.24;58.41;100325.47;5049730;28;70535;-36
2022/06/20 06:52:38;;;;;;;4.63;3.20;;;;;;;33.23;58.41;100318.38;5047109;28;67222;-36
2022/06/20 06:55:17;;;;;;;3.67;3.38;;;;;;;33.22;58.35;100319.44;5047261;28;69814;-35
2022/06/20 06:58:01;;;;;;;5.03;3.33;;;;;;;33.26;58.35;100325.19;5048422;28;66202;-35
2022/06/20 07:00:39;;;;;;;3.90;3.33;;;;;;;33.26;58.26;100323.31;5042121;28;70365;-35
2022/06/20 07:03:26;;;;;;;3.10;2.90;;;;;;;33.22;58.45;100316.72;5053934;28;66539;-35
2022/06/20 07:06:05;;;;;;;3.75;3.45;;;;;;;33.25;58.35;100313.50;5041904;28;69582;-36
2022/06/20 07:09:03;;;;;;;3.90;3.60;;;;;;;33.00;58.56;100264.22;5055129;28;65444;-35
2022/06/20 07:11:45;;;;;;;3.78;3.58;;;;;;;33.27;58.52;100305.94;5041426;28;70397;-35
2022/06/20 07:14:22;;;;;;;3.53;3.22;;;;;;;32.78;58.35;100217.97;5055973;28;66600;-35
2022/06/20 07:17:18;;;;;;;3.47;3.22;;;;;;;32.98;58.67;100250.03;5041218;28;70278;-35
2022/06/20 07:19:51;;;;;;;3.77;3.57;;;;;;;33.00;58.21;100247.94;5048740;28;66057;-36
2022/06/20 07:22:23;;;;;;;3.47;3.20;;;;;;;33.24;58.56;100281.97;5042322;28;70393;-35
2022/06/20 07:24:54;;;;;;;3.50;3.30;;;;;;;33.30;58.29;100289.13;5044911;28;65553;-35
2022/06/20 07:27:41;;;;;;;3.28;3.05;;;;;;;33.28;58.35;100280.38;5052666;28;69872;-35
2022/06/20 07:30:19;;;;;;;6.47;3.70;;;;;;;33.04;58.53;100230.88;5044261;28;66258;-35
2022/06/20 07:32:55;;;;;;;3.50;3.20;;;;;;;33.32;58.50;100262.53;5047731;28;70551;-36
2022/06/20 07:35:33;;;;;;;3.80;3.50;;;;;;;33.12;58.25;100240.47;5047102;28;66468;-35
2022/06/20 07:38:25;;;;;;;3.80;3.50;;;;;;;33.35;58.36;100272.88;5034433;28;68977;-36
2022/06/20 07:41:13;;;;;;;3.63;3.33;;;;;;;33.07;58.36;100224.09;5040419;28;66382;-35
2022/06/20 07:44:02;;;;;;;5.22;3.30;;;;;;;33.03;58.35;100231.94;5039679;28;70583;-36
2022/06/20 07:46:48;;;;;;;3.85;3.50;;;;;;;33.28;58.37;100269.50;5051230;28;65914;-36
2022/06/20 07:49:33;;;;;;;3.78;3.47;;;;;;;32.94;58.30;100204.34;5044687;28;70213;-36
2022/06/20 07:52:33;;;;;;;3.28;2.97;;;;;;;33.08;58.40;100225.78;5043828;27;66362;-35
2022/06/20 07:55:19;;;;;;;3.67;3.38;;;;;;;33.24;58.23;100254.81;5047826;28;69237;-36
2022/06/20 07:58:03;;;;;;;3.78;3.55;;;;;;;33.34;58.17;100263.06;5049291;28;65148;-36
2022/06/20 08:00:44;;;;;;;4.45;3.58;;;;;;;33.38;58.02;100255.25;5046314;28;70260;-35
2022/06/20 08:03:47;;;;;;;3.80;3.50;;;;;;;33.22;58.36;100205.28;5052388;28;65277;-36
2022/06/20 08:06:45;;;;;;;7.15;3.50;;;;;;;33.39;58.40;100229.69;5035614;28;69436;-35
2022/06/20 08:09:38;;;;;;;4.13;3.75;;;;;;;33.10;58.43;100199.19;5049075;28;66117;-34
2022/06/20 08:12:25;;;;;;;3.92;3.42;;;;;;;33.40;58.55;100236.78;5050873;28;70009;-35
2022/06/20 08:15:02;;;;;;;3.25;3.05;;;;;;;33.40;58.60;100236.78;5046699;28;66692;-36
2022/06/20 08:17:33;;;;;;;3.42;3.22;;;;;;;33.41;58.40;100234.91;5042146;28;69993;-35
2022/06/20 08:20:04;;;;;;;3.30;3.10;;;;;;;33.37;58.33;100221.78;5039167;28;66335;-36
2022/06/20 08:22:52;;;;;;;4.03;3.63;;;;;;;33.42;58.16;100218.31;5053093;28;70180;-35
2022/06/20 08:25:30;;;;;;;3.33;3.13;;;;;;;33.42;58.42;100212.06;5032266;28;66043;-36
2022/06/20 08:28:12;;;;;;;3.70;3.50;;;;;;;33.42;58.33;100239.25;5046479;28;70141;-35
2022/06/20 08:30:58;;;;;;;3.05;2.85;;;;;;;33.36;58.27;100257.41;5039886;28;65811;-35
2022/06/20 08:34:00;;;;;;;3.75;3.40;;;;;;;33.33;58.42;100258.72;5051033;28;69974;-36
2022/06/20 08:36:30;;;;;;;;;;;;;;;33.06;59.40;100266.75;5049737;27;66285;-36
2022/06/20 08:39:38;;;;;;;3.08;2.88;;;;;;;33.28;58.83;100255.94;5052730;28;70254;-36
2022/06/20 08:42:25;;;;;;;4.15;3.80;;;;;;;33.33;58.91;100264.16;5045406;28;66394;-36
2022/06/20 08:45:26;;;;;;;3.75;3.45;;;;;;;33.29;59.07;100263.03;5040435;28;69859;-35
2022/06/20 08:48:12;;;;;;;3.72;3.33;;;;;;;33.35;58.93;100267.44;5040779;28;66382;-35
2022/06/20 08:51:23;;;;;;;5.38;4.25;;;;;;;33.25;58.99;100253.72;5042723;28;69489;-37
2022/06/20 08:54:34;;;;;;;4.05;3.75;;;;;;;33.29;59.01;100246.72;5023925;28;66143;-35
2022/06/20 08:57:22;;;;;;;4.57;3.50;;;;;;;33.20;59.03;100215.59;5050542;28;71138;-36
2022/06/20 09:00:14;;;;;;;3.78;3.47;;;;;;;33.03;59.04;100193.09;5021182;28;66048;-36
2022/06/20 09:03:06;;;;;;;;;;;;;;;32.95;60.12;100232.34;5025036;28;69208;-36
2022/06/20 09:06:13;;;;;;;3.55;3.30;;;;;;;33.16;59.70;100252.50;5029040;28;65719;-35
2022/06/20 09:09:20;;;;;;;3.72;3.45;;;;;;;33.08;59.72;100261.91;5029116;28;69738;-34
2022/06/20 09:12:04;;;;;;;3.70;3.40;;;;;;;33.23;59.66;100265.91;5024801;28;65955;-35
2022/06/20 09:14:56;;;;;;;3.67;3.28;;;;;;;33.22;59.54;100275.97;5028378;28;70540;-36
2022/06/20 09:17:54;;;;;;;4.88;2.78;;;;;;;33.10;59.92;100270.66;5030204;28;66866;-35
2022/06/20 09:20:46;;;;;;;4.75;3.58;;;;;;;33.17;59.90;100270.44;5025962;28;70001;-35
2022/06/20 09:23:28;;;;;;;3.50;3.20;;;;;;;33.13;60.08;100258.44;5025796;28;63377;-35
2022/06/20 09:26:09;;;;;;;3.45;3.20;;;;;;;33.12;60.01;100267.66;5026375;28;69217;-36
2022/06/20 09:28:58;;;;;;;3.50;3.30;;;;;;;33.07;60.13;100275.72;5024263;28;65910;-35
2022/06/20 09:32:19;;;;;;;3.97;3.67;;;;;;;32.98;60.66;100282.63;5026909;28;68047;-35
2022/06/20 09:34:55;;;;;;;3.70;3.40;;;;;;;33.10;60.38;100286.13;5055589;28;65763;-36
2022/06/20 09:37:37;;;;;;;3.80;3.38;;;;;;;33.11;60.27;100280.44;5031138;28;69851;-35
2022/06/20 09:40:34;;;;;;;3.63;3.42;;;;;;;33.08;60.51;100288.25;5032248;28;66021;-35
2022/06/20 09:43:15;;;;;;;3.60;3.30;;;;;;;33.07;60.38;100300.19;5024548;28;68901;-36
2022/06/20 09:46:07;;;;;;;3.35;3.05;;;;;;;33.05;60.63;100302.34;5032290;28;65463;-37
2022/06/20 09:48:47;;;;;;;3.47;3.17;;;;;;;33.07;60.56;100308.34;5034347;28;69170;-36
2022/06/20 09:51:53;;;;;;;3.70;3.40;;;;;;;32.75;60.71;100270.06;5037031;28;65047;-36
2022/06/20 09:54:56;;;;;;;3.53;3.22;;;;;;;32.88;61.26;100310.50;5031049;28;69262;-37
2022/06/20 09:57:50;;;;;;;4.00;3.70;;;;;;;33.04;60.79;100309.69;5039144;28;65537;-35
2022/06/20 10:00:40;;;;;;;4.53;4.13;;;;;;;32.69;60.78;100252.88;5042935;28;70321;-36
2022/06/20 10:03:16;;;;;;;4.05;3.65;;;;;;;33.02;60.85;100305.56;5042757;28;65943;-35
2022/06/20 10:05:59;;;;;;;4.15;3.72;;;;;;;33.00;60.76;100296.84;5042318;28;69896;-36
2022/06/20 10:08:47;;;;;;;4.30;3.90;;;;;;;32.85;60.95;100311.00;5042869;28;66471;-35
2022/06/20 10:11:23;;;;;;;3.95;3.65;;;;;;;32.97;60.69;100351.66;5041609;28;70174;-36
2022/06/20 10:14:05;;;;;;;4.15;3.83;;;;;;;32.93;60.86;100373.88;5042839;28;65901;-36
2022/06/20 10:17:07;;;;;;;3.70;3.40;;;;;;;32.73;61.06;100370.78;5042052;28;69713;-36
2022/06/20 10:19:54;;;;;;;3.95;3.65;;;;;;;32.56;61.03;100308.31;5042905;28;65788;-37
2022/06/20 10:23:16;;;;;;;4.30;3.90;;;;;;;32.73;61.79;100330.06;5039886;28;69294;-36
2022/06/20 10:26:20;;;;;;;3.63;3.42;;;;;;;32.79;61.40;100318.22;5022505;28;66153;-36
2022/06/20 10:29:29;;;;;;;4.72;4.32;;;;;;;32.81;62.50;100335.09;5053962;28;69461;-35
2022/06/20 10:32:19;;;;;;;5.85;4.55;;;;;;;32.78;63.56;100349.16;5045091;28;65760;-36
2022/06/20 10:35:24;;;;;;;7.35;4.85;;;;;;;32.67;64.44;100390.78;5013852;28;70017;-37
2022/06/20 10:38:08;;;;;;;7.68;4.95;;;;;;;32.64;64.75;100418.44;5053538;28;65499;-36
2022/06/20 10:40:50;;;;;;;7.65;4.95;;;;;;;32.66;64.88;100432.59;5033605;28;70606;-35
2022/06/20 10:43:42;;;;;;;5.53;5.13;;;;;;;32.35;65.25;100388.56;5041549;28;65071;-36
2022/06/20 10:46:26;;;;;;;11.10;4.93;;;;;;;32.58;65.33;100403.13;5055638;28;70290;-37
2022/06/20 10:49:19;;;;;;;9.95;4.88;;;;;;;32.53;65.84;100401.13;5058314;28;66389;-35
2022/06/20 10:52:04;;;;;;;11.48;5.13;;;;;;;32.46;66.51;100381.47;5052171;28;70478;-36
2022/06/20 10:55:01;;;;;;;5.30;4.80;;;;;;;32.49;66.37;100379.09;5043123;28;66009;-36
2022/06/20 10:57:49;;;;;;;5.57;5.07;;;;;;;32.44;66.43;100397.94;5044367;28;70271;-36
2022/06/20 11:00:22;;;;;;;6.57;5.30;;;;;;;32.42;66.55;100431.84;5038653;28;65042;-36
2022/06/20 11:03:11;;;;;;;6.68;5.30;;;;;;;32.34;67.65;100449.31;5049406;28;70604;-36
2022/06/20 11:05:55;;;;;;;9.63;5.28;;;;;;;32.04;67.38;100411.56;5051854;28;65568;-35
2022/06/20 11:08:43;;;;;;;6.15;5.55;;;;;;;32.31;67.84;100479.66;5045514;28;69180;-37
2022/06/20 11:11:47;;;;;;;5.60;5.20;;;;;;;32.28;68.24;100488.28;5048183;28;66175;-37
2022/06/20 11:14:30;;;;;;;10.18;5.55;;;;;;;32.36;68.02;100504.19;5046204;28;68967;-35
2022/06/20 11:17:25;;;;;;;6.95;5.20;;;;;;;32.29;67.80;100503.53;5054963;28;66156;-36
2022/06/20 11:20:20;;;;;;;11.45;5.10;;;;;;;32.32;67.83;100507.63;5048603;28;70340;-37
2022/06/20 11:23:13;;;;;;;13.00;4.93;;;;;;;32.34;67.57;100500.88;5059490;28;65603;-36
2022/06/20 11:26:15;;;;;;;7.78;4.60;;;;;;;32.35;67.21;100509.88;5057997;28;69059;-35
2022/06/20 11:28:52;;;;;;;;;;;;;;;32.10;67.85;100516.41;5055973;28;66017;-36
2022/06/20 11:31:41;;;;;;;24.45;16.42;;;;;;;32.48;66.70;100515.06;5052281;28;69730;-35
2022/06/20 11:34:37;;;;;;;60.67;35.05;;;;;;;32.46;66.53;100515.31;5047826;28;65272;-37
2022/06/20 11:37:33;;;;;;;71.60;41.50;;;;;;;32.49;66.69;100517.53;5044946;28;70209;-37
2022/06/20 11:40:27;;;;;;;77.82;44.83;;;;;;;32.52;66.31;100534.44;5046808;28;66282;-37
2022/06/20 11:43:26;;;;;;;76.18;46.00;;;;;;;32.60;66.11;100525.91;5035785;28;69967;-36
2022/06/20 11:46:31;;;;;;;72.57;41.58;;;;;;;32.57;66.45;100515.50;5055458;28;66221;-36
2022/06/20 11:49:26;;;;;;;73.53;40.95;;;;;;;32.61;66.17;100506.66;5033022;28;69405;-36
2022/06/20 11:52:19;;;;;;;63.42;37.45;;;;;;;32.70;65.96;100515.22;5023292;28;65364;-35
2022/06/20 11:55:04;;;;;;;56.40;33.25;;;;;;;32.43;66.00;100466.03;5046414;28;69719;-37
2022/06/20 11:57:58;;;;;;;58.03;31.52;;;;;;;32.61;66.39;100494.97;5048057;28;66177;-36
2022/06/20 12:00:38;;;;;;;48.20;28.60;;;;;;;32.73;65.76;100468.56;5041915;28;69585;-36
2022/06/20 12:03:30;;;;;;;49.03;28.67;;;;;;;32.64;65.86;100451.84;5051139;28;66964;-37
2022/06/20 12:06:15;;;;;;;44.97;26.58;;;;;;;32.34;65.95;100397.75;5045970;28;69279;-37
2022/06/20 12:09:10;;;;;;;36.33;22.58;;;;;;;32.63;65.93;100449.38;5033326;28;66285;-36
2022/06/20 12:12:12;;;;;;;35.50;20.98;;;;;;;32.45;65.67;100445.75;5052207;28;70325;-38
2022/06/20 12:15:22;;;;;;;31.65;21.20;;;;;;;32.72;65.49;100488.66;5054372;28;66216;-37
2022/06/20 12:18:04;;;;;;;26.08;17.98;;;;;;;32.68;65.50;100498.34;5055847;28;70659;-38
2022/06/20 12:23:41;;;;;;;27.45;15.80;;;;;;;32.71;65.55;100506.03;5061526;28;69845;-37
2022/06/20 12:26:30;;;;;;;20.08;13.00;;;;;;;32.69;65.92;100500.84;5054563;28;65931;-39
2022/06/20 12:29:25;;;;;;;12.68;10.13;;;;;;;32.63;65.81;100476.53;5053003;28;70458;-35
2022/06/20 12:32:00;;;;;;;9.55;8.63;;;;;;;32.33;66.68;100447.69;5053472;28;65821;-36
2022/06/20 12:34:45;;;;;;;10.48;8.73;;;;;;;32.48;66.93;100491.47;5053049;28;69421;-37
2022/06/20 12:37:57;;;;;;;9.15;8.25;;;;;;;32.34;67.17;100509.03;5059862;28;65395;-35
2022/06/20 12:40:36;;;;;;;8.35;7.55;;;;;;;32.26;67.75;100525.69;5057547;28;70814;-35
2022/06/20 12:43:16;;;;;;;8.75;6.55;;;;;;;31.82;67.85;100460.13;5049193;28;66592;-36
2022/06/20 12:46:04;;;;;;;10.52;7.25;;;;;;;32.17;68.67;100516.25;5058514;28;70822;-38
2022/06/20 12:48:42;;;;;;;16.17;6.47;;;;;;;31.99;69.04;100512.63;5020091;28;65253;-35
2022/06/20 12:51:21;;;;;;;21.73;6.75;;;;;;;32.05;69.24;100525.25;5058726;28;70144;-35
2022/06/20 12:54:05;;;;;;;7.90;5.47;;;;;;;32.03;68.39;100532.78;5052438;28;66296;-35
2022/06/20 12:57:03;;;;;;;15.60;5.72;;;;;;;31.91;68.64;100533.84;5038996;28;70083;-36
2022/06/20 12:59:56;;;;;;;7.10;5.88;;;;;;;32.02;68.40;100535.75;5063675;28;65399;-35
2022/06/20 13:02:43;;;;;;;12.20;5.75;;;;;;;31.93;68.60;100543.44;5070647;28;69680;-35
2022/06/20 13:05:34;;;;;;;9.23;5.78;;;;;;;31.88;69.33;100534.31;5049472;28;65403;-36
2022/06/20 13:08:36;;;;;;;8.00;6.35;;;;;;;31.50;69.32;100501.13;5051243;28;69571;-35
2022/06/20 13:11:15;;;;;;;7.18;6.30;;;;;;;31.70;69.17;100519.78;5057287;28;66353;-37
2022/06/20 13:14:01;;;;;;;7.65;6.68;;;;;;;31.81;68.99;100534.41;5055036;28;70306;-35
2022/06/20 13:16:59;;;;;;;7.25;6.57;;;;;;;31.76;68.61;100532.41;5043840;28;65405;-35
2022/06/20 13:19:38;;;;;;;10.73;7.25;;;;;;;31.79;68.53;100541.97;5068849;27;70085;-35
2022/06/20 13:22:25;;;;;;;7.95;7.10;;;;;;;31.77;68.47;100544.09;5053471;28;66061;-35